sensor_id;sensor_type;location;lat;lon;timestamp;P1;durP1;ratioP1;P2;durP2;ratioP2
58992;SDS011;44782;0.000;0.000;2023-02-01T00:00:32;2.50;;;2.27;;
58992;SDS011;44782;0.000;0.000;2023-02-01T00:02:49;2.50;;;2.13;;
58992;SDS011;44782;0.000;0.000;2023-02-01T00:05:05;2.33;;;2.07;;
58992;SDS011;44782;0.000;0.000;2023-02-01T00:07:23;2.73;;;2.33;;
58992;SDS011;44782;0.000;0.000;2023-02-01T00:09:39;2.20;;;2.00;;
58992;SDS011;44782;0.000;0.000;2023-02-01T00:11:55;2.30;;;2.10;;
58992;SDS011;44782;0.000;0.000;2023-02-01T00:14:14;2.97;;;2.40;;
58992;SDS011;44782;0.000;0.000;2023-02-01T00:16:30;2.43;;;2.10;;
58992;SDS011;44782;0.000;0.000;2023-02-01T00:18:47;2.40;;;2.20;;
58992;SDS011;44782;0.000;0.000;2023-02-01T00:21:05;2.43;;;2.10;;
58992;SDS011;44782;0.000;0.000;2023-02-01T00:23:21;3.13;;;2.43;;
58992;SDS011;44782;0.000;0.000;2023-02-01T00:25:36;2.73;;;2.10;;
58992;SDS011;44782;0.000;0.000;2023-02-01T00:27:52;2.80;;;2.30;;
58992;SDS011;44782;0.000;0.000;2023-02-01T00:30:08;2.60;;;2.40;;
58992;SDS011;44782;0.000;0.000;2023-02-01T00:32:24;2.33;;;2.13;;
58992;SDS011;44782;0.000;0.000;2023-02-01T00:34:40;2.50;;;2.17;;
58992;SDS011;44782;0.000;0.000;2023-02-01T00:36:55;2.40;;;2.17;;
58992;SDS011;44782;0.000;0.000;2023-02-01T00:39:11;4.27;;;2.40;;
58992;SDS011;44782;0.000;0.000;2023-02-01T00:41:27;2.40;;;2.20;;
58992;SDS011;44782;0.000;0.000;2023-02-01T00:43:42;2.87;;;2.27;;
58992;SDS011;44782;0.000;0.000;2023-02-01T00:45:59;2.30;;;2.10;;
58992;SDS011;44782;0.000;0.000;2023-02-01T00:48:15;2.70;;;2.20;;
58992;SDS011;44782;0.000;0.000;2023-02-01T00:50:31;2.53;;;2.10;;
58992;SDS011;44782;0.000;0.000;2023-02-01T00:52:46;2.57;;;2.17;;
58992;SDS011;44782;0.000;0.000;2023-02-01T00:55:02;3.10;;;2.10;;
58992;SDS011;44782;0.000;0.000;2023-02-01T00:57:18;2.30;;;2.03;;
58992;SDS011;44782;0.000;0.000;2023-02-01T00:59:33;2.30;;;2.10;;
58992;SDS011;44782;0.000;0.000;2023-02-01T01:01:49;3.07;;;2.20;;
58992;SDS011;44782;0.000;0.000;2023-02-01T01:04:05;3.13;;;2.00;;
58992;SDS011;44782;0.000;0.000;2023-02-01T01:06:30;2.30;;;2.10;;
58992;SDS011;44782;0.000;0.000;2023-02-01T01:08:47;2.53;;;2.33;;
58992;SDS011;44782;0.000;0.000;2023-02-01T01:11:06;2.27;;;2.07;;
58992;SDS011;44782;0.000;0.000;2023-02-01T01:13:27;2.57;;;2.10;;
58992;SDS011;44782;0.000;0.000;2023-02-01T01:15:42;2.43;;;2.03;;
58992;SDS011;44782;0.000;0.000;2023-02-01T01:17:58;2.47;;;2.00;;
58992;SDS011;44782;0.000;0.000;2023-02-01T01:23:20;2.77;;;2.00;;
58992;SDS011;44782;0.000;0.000;2023-02-01T01:25:38;2.00;;;1.90;;
58992;SDS011;44782;0.000;0.000;2023-02-01T01:27:54;2.43;;;2.23;;
58992;SDS011;44782;0.000;0.000;2023-02-01T01:30:10;2.77;;;2.20;;
58992;SDS011;44782;0.000;0.000;2023-02-01T01:32:26;2.30;;;2.00;;
58992;SDS011;44782;0.000;0.000;2023-02-01T01:34:42;3.00;;;2.20;;
58992;SDS011;44782;0.000;0.000;2023-02-01T01:36:57;2.57;;;1.97;;
58992;SDS011;44782;0.000;0.000;2023-02-01T01:39:13;2.50;;;2.20;;
58992;SDS011;44782;0.000;0.000;2023-02-01T01:41:29;2.20;;;2.00;;
58992;SDS011;44782;0.000;0.000;2023-02-01T01:46:04;2.73;;;1.87;;
58992;SDS011;44782;0.000;0.000;2023-02-01T01:48:21;2.07;;;1.87;;
58992;SDS011;44782;0.000;0.000;2023-02-01T01:50:49;2.13;;;1.93;;
58992;SDS011;44782;0.000;0.000;2023-02-01T01:53:11;2.10;;;2.00;;
58992;SDS011;44782;0.000;0.000;2023-02-01T01:55:29;4.03;;;2.50;;
58992;SDS011;44782;0.000;0.000;2023-02-01T01:57:57;2.63;;;1.83;;
58992;SDS011;44782;0.000;0.000;2023-02-01T02:00:17;2.10;;;1.77;;
58992;SDS011;44782;0.000;0.000;2023-02-01T02:02:36;2.30;;;1.97;;
58992;SDS011;44782;0.000;0.000;2023-02-01T02:04:53;2.70;;;1.93;;
58992;SDS011;44782;0.000;0.000;2023-02-01T02:09:34;2.77;;;2.10;;
58992;SDS011;44782;0.000;0.000;2023-02-01T02:11:50;2.70;;;2.00;;
58992;SDS011;44782;0.000;0.000;2023-02-01T02:14:06;2.47;;;2.27;;
58992;SDS011;44782;0.000;0.000;2023-02-01T02:19:10;2.60;;;2.10;;
58992;SDS011;44782;0.000;0.000;2023-02-01T02:35:11;2.70;;;1.93;;
58992;SDS011;44782;0.000;0.000;2023-02-01T02:42:55;2.33;;;2.00;;
58992;SDS011;44782;0.000;0.000;2023-02-01T02:45:38;2.53;;;1.83;;
58992;SDS011;44782;0.000;0.000;2023-02-01T02:48:25;1.70;;;1.50;;
58992;SDS011;44782;0.000;0.000;2023-02-01T02:50:50;2.20;;;2.00;;
58992;SDS011;44782;0.000;0.000;2023-02-01T02:56:22;2.13;;;1.80;;
58992;SDS011;44782;0.000;0.000;2023-02-01T02:58:58;2.77;;;2.00;;
58992;SDS011;44782;0.000;0.000;2023-02-01T03:01:33;3.10;;;2.17;;
58992;SDS011;44782;0.000;0.000;2023-02-01T03:04:07;2.70;;;1.90;;
58992;SDS011;44782;0.000;0.000;2023-02-01T03:06:32;2.20;;;2.00;;
58992;SDS011;44782;0.000;0.000;2023-02-01T03:08:48;2.60;;;2.00;;
58992;SDS011;44782;0.000;0.000;2023-02-01T03:11:09;2.30;;;1.80;;
58992;SDS011;44782;0.000;0.000;2023-02-01T03:18:39;2.33;;;1.53;;
58992;SDS011;44782;0.000;0.000;2023-02-01T03:21:09;2.30;;;1.80;;
58992;SDS011;44782;0.000;0.000;2023-02-01T03:23:31;2.20;;;1.80;;
58992;SDS011;44782;0.000;0.000;2023-02-01T03:25:50;2.87;;;2.20;;
58992;SDS011;44782;0.000;0.000;2023-02-01T03:28:08;2.03;;;1.83;;
58992;SDS011;44782;0.000;0.000;2023-02-01T03:30:27;2.47;;;2.00;;
58992;SDS011;44782;0.000;0.000;2023-02-01T03:32:53;2.90;;;2.10;;
58992;SDS011;44782;0.000;0.000;2023-02-01T03:35:14;3.03;;;2.00;;
58992;SDS011;44782;0.000;0.000;2023-02-01T03:37:29;2.60;;;1.90;;
58992;SDS011;44782;0.000;0.000;2023-02-01T03:39:46;2.40;;;1.90;;
58992;SDS011;44782;0.000;0.000;2023-02-01T03:42:18;2.27;;;1.80;;
58992;SDS011;44782;0.000;0.000;2023-02-01T03:44:39;3.20;;;2.10;;
58992;SDS011;44782;0.000;0.000;2023-02-01T03:47:18;3.23;;;1.80;;
58992;SDS011;44782;0.000;0.000;2023-02-01T03:50:12;2.37;;;1.90;;
58992;SDS011;44782;0.000;0.000;2023-02-01T03:52:32;2.57;;;1.97;;
58992;SDS011;44782;0.000;0.000;2023-02-01T03:54:50;3.00;;;2.30;;
58992;SDS011;44782;0.000;0.000;2023-02-01T03:57:08;2.43;;;1.83;;
58992;SDS011;44782;0.000;0.000;2023-02-01T03:59:27;2.40;;;1.90;;
58992;SDS011;44782;0.000;0.000;2023-02-01T04:01:43;2.83;;;1.80;;
58992;SDS011;44782;0.000;0.000;2023-02-01T04:03:59;2.83;;;2.10;;
58992;SDS011;44782;0.000;0.000;2023-02-01T04:06:14;3.33;;;1.90;;
58992;SDS011;44782;0.000;0.000;2023-02-01T04:08:30;2.90;;;1.80;;
58992;SDS011;44782;0.000;0.000;2023-02-01T04:10:46;2.73;;;1.87;;
58992;SDS011;44782;0.000;0.000;2023-02-01T04:13:02;3.10;;;2.20;;
58992;SDS011;44782;0.000;0.000;2023-02-01T04:15:18;3.20;;;1.90;;
58992;SDS011;44782;0.000;0.000;2023-02-01T04:17:34;2.90;;;2.10;;
58992;SDS011;44782;0.000;0.000;2023-02-01T04:19:50;3.47;;;1.93;;
58992;SDS011;44782;0.000;0.000;2023-02-01T04:22:06;3.07;;;2.10;;
58992;SDS011;44782;0.000;0.000;2023-02-01T04:24:21;3.33;;;1.90;;
58992;SDS011;44782;0.000;0.000;2023-02-01T04:26:37;3.53;;;2.10;;
58992;SDS011;44782;0.000;0.000;2023-02-01T04:28:53;3.20;;;2.00;;
58992;SDS011;44782;0.000;0.000;2023-02-01T04:31:09;2.57;;;2.00;;
58992;SDS011;44782;0.000;0.000;2023-02-01T04:33:24;3.33;;;2.03;;
58992;SDS011;44782;0.000;0.000;2023-02-01T04:35:40;2.87;;;2.00;;
58992;SDS011;44782;0.000;0.000;2023-02-01T04:37:56;3.33;;;2.00;;
58992;SDS011;44782;0.000;0.000;2023-02-01T04:40:12;2.90;;;2.00;;
58992;SDS011;44782;0.000;0.000;2023-02-01T04:42:28;2.53;;;2.00;;
58992;SDS011;44782;0.000;0.000;2023-02-01T04:44:43;2.90;;;2.00;;
58992;SDS011;44782;0.000;0.000;2023-02-01T04:46:59;2.30;;;1.70;;
58992;SDS011;44782;0.000;0.000;2023-02-01T04:49:15;2.90;;;1.90;;
58992;SDS011;44782;0.000;0.000;2023-02-01T04:51:31;3.23;;;1.70;;
58992;SDS011;44782;0.000;0.000;2023-02-01T04:53:47;2.63;;;1.83;;
58992;SDS011;44782;0.000;0.000;2023-02-01T04:56:03;2.70;;;1.87;;
58992;SDS011;44782;0.000;0.000;2023-02-01T04:58:19;3.07;;;2.00;;
58992;SDS011;44782;0.000;0.000;2023-02-01T05:00:35;3.63;;;2.23;;
58992;SDS011;44782;0.000;0.000;2023-02-01T05:02:51;3.03;;;2.00;;
58992;SDS011;44782;0.000;0.000;2023-02-01T05:05:06;3.40;;;2.03;;
58992;SDS011;44782;0.000;0.000;2023-02-01T05:07:22;3.13;;;2.23;;
58992;SDS011;44782;0.000;0.000;2023-02-01T05:09:38;3.00;;;2.30;;
58992;SDS011;44782;0.000;0.000;2023-02-01T05:11:54;3.83;;;2.20;;
58992;SDS011;44782;0.000;0.000;2023-02-01T05:14:28;2.53;;;2.20;;
58992;SDS011;44782;0.000;0.000;2023-02-01T05:16:43;4.23;;;2.33;;
58992;SDS011;44782;0.000;0.000;2023-02-01T05:21:14;3.30;;;2.17;;
58992;SDS011;44782;0.000;0.000;2023-02-01T05:23:30;3.20;;;2.30;;
58992;SDS011;44782;0.000;0.000;2023-02-01T05:25:46;2.90;;;2.20;;
58992;SDS011;44782;0.000;0.000;2023-02-01T05:28:01;3.60;;;2.30;;
58992;SDS011;44782;0.000;0.000;2023-02-01T05:30:17;3.13;;;2.30;;
58992;SDS011;44782;0.000;0.000;2023-02-01T05:32:33;2.63;;;2.20;;
58992;SDS011;44782;0.000;0.000;2023-02-01T05:34:49;3.30;;;2.00;;
58992;SDS011;44782;0.000;0.000;2023-02-01T05:37:05;2.33;;;1.90;;
58992;SDS011;44782;0.000;0.000;2023-02-01T05:39:20;3.60;;;2.10;;
58992;SDS011;44782;0.000;0.000;2023-02-01T05:41:36;2.67;;;2.10;;
58992;SDS011;44782;0.000;0.000;2023-02-01T05:43:52;3.57;;;2.13;;
58992;SDS011;44782;0.000;0.000;2023-02-01T05:46:07;3.27;;;2.10;;
58992;SDS011;44782;0.000;0.000;2023-02-01T05:48:25;3.20;;;2.27;;
58992;SDS011;44782;0.000;0.000;2023-02-01T05:50:41;3.03;;;2.33;;
58992;SDS011;44782;0.000;0.000;2023-02-01T05:52:58;2.90;;;2.10;;
58992;SDS011;44782;0.000;0.000;2023-02-01T05:55:14;3.60;;;2.40;;
58992;SDS011;44782;0.000;0.000;2023-02-01T05:57:29;3.47;;;2.10;;
58992;SDS011;44782;0.000;0.000;2023-02-01T05:59:45;3.00;;;2.27;;
58992;SDS011;44782;0.000;0.000;2023-02-01T06:02:02;3.80;;;2.23;;
58992;SDS011;44782;0.000;0.000;2023-02-01T06:04:18;3.30;;;2.30;;
58992;SDS011;44782;0.000;0.000;2023-02-01T06:06:33;3.90;;;2.77;;
58992;SDS011;44782;0.000;0.000;2023-02-01T06:08:49;3.13;;;2.10;;
58992;SDS011;44782;0.000;0.000;2023-02-01T06:11:04;3.50;;;2.53;;
58992;SDS011;44782;0.000;0.000;2023-02-01T06:13:20;3.00;;;2.20;;
58992;SDS011;44782;0.000;0.000;2023-02-01T06:15:36;3.27;;;2.30;;
58992;SDS011;44782;0.000;0.000;2023-02-01T06:17:52;3.07;;;2.30;;
58992;SDS011;44782;0.000;0.000;2023-02-01T06:20:08;4.53;;;2.47;;
58992;SDS011;44782;0.000;0.000;2023-02-01T06:22:24;3.53;;;2.40;;
58992;SDS011;44782;0.000;0.000;2023-02-01T06:24:40;4.40;;;2.27;;
58992;SDS011;44782;0.000;0.000;2023-02-01T06:26:56;3.00;;;2.20;;
58992;SDS011;44782;0.000;0.000;2023-02-01T06:29:12;3.70;;;2.20;;
58992;SDS011;44782;0.000;0.000;2023-02-01T06:31:28;3.67;;;2.37;;
58992;SDS011;44782;0.000;0.000;2023-02-01T06:33:43;3.00;;;2.13;;
58992;SDS011;44782;0.000;0.000;2023-02-01T06:36:01;3.97;;;2.43;;
58992;SDS011;44782;0.000;0.000;2023-02-01T06:38:19;4.13;;;2.53;;
58992;SDS011;44782;0.000;0.000;2023-02-01T06:40:34;3.80;;;2.53;;
58992;SDS011;44782;0.000;0.000;2023-02-01T06:42:50;4.23;;;2.50;;
58992;SDS011;44782;0.000;0.000;2023-02-01T06:45:06;4.43;;;2.63;;
58992;SDS011;44782;0.000;0.000;2023-02-01T06:47:22;3.50;;;2.43;;
58992;SDS011;44782;0.000;0.000;2023-02-01T06:49:38;3.73;;;2.67;;
58992;SDS011;44782;0.000;0.000;2023-02-01T06:51:55;3.50;;;2.70;;
58992;SDS011;44782;0.000;0.000;2023-02-01T06:54:11;3.63;;;2.50;;
58992;SDS011;44782;0.000;0.000;2023-02-01T06:56:27;4.47;;;2.97;;
58992;SDS011;44782;0.000;0.000;2023-02-01T06:58:45;4.03;;;2.70;;
58992;SDS011;44782;0.000;0.000;2023-02-01T07:01:05;4.13;;;2.40;;
58992;SDS011;44782;0.000;0.000;2023-02-01T07:03:22;4.10;;;3.00;;
58992;SDS011;44782;0.000;0.000;2023-02-01T07:05:38;3.57;;;2.67;;
58992;SDS011;44782;0.000;0.000;2023-02-01T07:07:54;3.97;;;2.97;;
58992;SDS011;44782;0.000;0.000;2023-02-01T07:10:09;4.17;;;2.80;;
58992;SDS011;44782;0.000;0.000;2023-02-01T07:12:25;4.00;;;2.60;;
58992;SDS011;44782;0.000;0.000;2023-02-01T07:14:41;5.27;;;2.73;;
58992;SDS011;44782;0.000;0.000;2023-02-01T07:16:57;5.10;;;3.30;;
58992;SDS011;44782;0.000;0.000;2023-02-01T07:19:12;4.10;;;2.77;;
58992;SDS011;44782;0.000;0.000;2023-02-01T07:21:28;5.10;;;2.73;;
58992;SDS011;44782;0.000;0.000;2023-02-01T07:23:44;4.13;;;2.70;;
58992;SDS011;44782;0.000;0.000;2023-02-01T07:26:00;4.30;;;2.80;;
58992;SDS011;44782;0.000;0.000;2023-02-01T07:28:18;4.23;;;2.60;;
58992;SDS011;44782;0.000;0.000;2023-02-01T07:30:33;5.40;;;3.03;;
58992;SDS011;44782;0.000;0.000;2023-02-01T07:32:49;4.30;;;2.93;;
58992;SDS011;44782;0.000;0.000;2023-02-01T07:35:05;4.97;;;3.00;;
58992;SDS011;44782;0.000;0.000;2023-02-01T07:37:21;4.00;;;2.73;;
58992;SDS011;44782;0.000;0.000;2023-02-01T07:39:36;4.03;;;2.73;;
58992;SDS011;44782;0.000;0.000;2023-02-01T07:41:52;3.97;;;2.57;;
58992;SDS011;44782;0.000;0.000;2023-02-01T07:44:08;4.70;;;2.97;;
58992;SDS011;44782;0.000;0.000;2023-02-01T07:46:24;4.10;;;2.87;;
58992;SDS011;44782;0.000;0.000;2023-02-01T07:48:40;3.47;;;2.73;;
58992;SDS011;44782;0.000;0.000;2023-02-01T07:51:02;4.33;;;2.90;;
58992;SDS011;44782;0.000;0.000;2023-02-01T07:53:19;4.30;;;3.00;;
58992;SDS011;44782;0.000;0.000;2023-02-01T07:57:57;4.17;;;2.87;;
58992;SDS011;44782;0.000;0.000;2023-02-01T08:00:14;3.87;;;2.70;;
58992;SDS011;44782;0.000;0.000;2023-02-01T08:02:48;4.57;;;2.93;;
58992;SDS011;44782;0.000;0.000;2023-02-01T08:05:04;4.83;;;3.00;;
58992;SDS011;44782;0.000;0.000;2023-02-01T08:07:20;4.73;;;3.07;;
58992;SDS011;44782;0.000;0.000;2023-02-01T08:09:37;3.67;;;2.90;;
58992;SDS011;44782;0.000;0.000;2023-02-01T08:11:52;3.20;;;2.67;;
58992;SDS011;44782;0.000;0.000;2023-02-01T08:14:08;4.03;;;2.83;;
58992;SDS011;44782;0.000;0.000;2023-02-01T08:16:24;4.50;;;2.67;;
58992;SDS011;44782;0.000;0.000;2023-02-01T08:18:40;4.47;;;2.93;;
58992;SDS011;44782;0.000;0.000;2023-02-01T08:20:56;4.33;;;2.83;;
58992;SDS011;44782;0.000;0.000;2023-02-01T08:23:12;3.97;;;3.00;;
58992;SDS011;44782;0.000;0.000;2023-02-01T08:25:27;4.93;;;2.93;;
58992;SDS011;44782;0.000;0.000;2023-02-01T08:27:43;4.00;;;2.90;;
58992;SDS011;44782;0.000;0.000;2023-02-01T08:30:00;4.20;;;2.80;;
58992;SDS011;44782;0.000;0.000;2023-02-01T08:32:15;3.60;;;2.50;;
58992;SDS011;44782;0.000;0.000;2023-02-01T08:34:34;3.67;;;2.43;;
58992;SDS011;44782;0.000;0.000;2023-02-01T08:36:50;3.23;;;2.47;;
58992;SDS011;44782;0.000;0.000;2023-02-01T08:39:12;3.83;;;2.90;;
58992;SDS011;44782;0.000;0.000;2023-02-01T08:41:29;4.80;;;2.80;;
58992;SDS011;44782;0.000;0.000;2023-02-01T08:43:45;3.67;;;2.60;;
58992;SDS011;44782;0.000;0.000;2023-02-01T08:46:03;5.13;;;2.90;;
58992;SDS011;44782;0.000;0.000;2023-02-01T08:48:20;4.13;;;2.73;;
58992;SDS011;44782;0.000;0.000;2023-02-01T08:50:35;4.27;;;2.90;;
58992;SDS011;44782;0.000;0.000;2023-02-01T08:52:51;4.23;;;2.50;;
58992;SDS011;44782;0.000;0.000;2023-02-01T08:55:08;3.23;;;2.47;;
58992;SDS011;44782;0.000;0.000;2023-02-01T08:57:24;4.80;;;2.67;;
58992;SDS011;44782;0.000;0.000;2023-02-01T09:01:55;4.67;;;2.70;;
58992;SDS011;44782;0.000;0.000;2023-02-01T09:04:11;3.67;;;2.60;;
58992;SDS011;44782;0.000;0.000;2023-02-01T09:06:27;3.53;;;2.40;;
58992;SDS011;44782;0.000;0.000;2023-02-01T09:08:43;3.57;;;2.50;;
58992;SDS011;44782;0.000;0.000;2023-02-01T09:11:00;3.23;;;2.60;;
58992;SDS011;44782;0.000;0.000;2023-02-01T09:13:20;4.00;;;2.50;;
58992;SDS011;44782;0.000;0.000;2023-02-01T09:15:37;3.87;;;2.37;;
58992;SDS011;44782;0.000;0.000;2023-02-01T09:17:53;4.20;;;2.57;;
58992;SDS011;44782;0.000;0.000;2023-02-01T09:20:09;4.37;;;2.93;;
58992;SDS011;44782;0.000;0.000;2023-02-01T09:22:25;4.03;;;2.80;;
58992;SDS011;44782;0.000;0.000;2023-02-01T09:24:41;5.03;;;2.70;;
58992;SDS011;44782;0.000;0.000;2023-02-01T09:26:57;4.53;;;2.63;;
58992;SDS011;44782;0.000;0.000;2023-02-01T09:29:12;4.67;;;2.90;;
58992;SDS011;44782;0.000;0.000;2023-02-01T09:31:29;4.40;;;2.50;;
58992;SDS011;44782;0.000;0.000;2023-02-01T09:33:45;4.03;;;2.33;;
58992;SDS011;44782;0.000;0.000;2023-02-01T09:36:02;4.43;;;2.60;;
58992;SDS011;44782;0.000;0.000;2023-02-01T09:38:19;3.90;;;2.40;;
58992;SDS011;44782;0.000;0.000;2023-02-01T09:40:35;3.53;;;2.33;;
58992;SDS011;44782;0.000;0.000;2023-02-01T09:47:36;4.97;;;2.67;;
58992;SDS011;44782;0.000;0.000;2023-02-01T09:52:17;4.63;;;2.57;;
58992;SDS011;44782;0.000;0.000;2023-02-01T09:54:42;4.07;;;2.70;;
58992;SDS011;44782;0.000;0.000;2023-02-01T09:57:08;3.27;;;2.40;;
58992;SDS011;44782;0.000;0.000;2023-02-01T10:01:48;5.07;;;2.50;;
58992;SDS011;44782;0.000;0.000;2023-02-01T10:04:05;3.80;;;2.47;;
58992;SDS011;44782;0.000;0.000;2023-02-01T10:14:17;4.00;;;2.60;;
58992;SDS011;44782;0.000;0.000;2023-02-01T10:20:22;4.07;;;2.33;;
58992;SDS011;44782;0.000;0.000;2023-02-01T10:22:25;3.60;;;2.30;;
58992;SDS011;44782;0.000;0.000;2023-02-01T10:27:40;4.37;;;2.40;;
58992;SDS011;44782;0.000;0.000;2023-02-01T10:29:58;5.17;;;2.77;;
58992;SDS011;44782;0.000;0.000;2023-02-01T10:32:17;3.40;;;2.30;;
58992;SDS011;44782;0.000;0.000;2023-02-01T10:34:36;3.87;;;2.20;;
58992;SDS011;44782;0.000;0.000;2023-02-01T10:37:07;3.27;;;2.30;;
58992;SDS011;44782;0.000;0.000;2023-02-01T10:39:39;4.00;;;2.40;;
58992;SDS011;44782;0.000;0.000;2023-02-01T10:41:55;3.67;;;2.33;;
58992;SDS011;44782;0.000;0.000;2023-02-01T10:44:13;3.80;;;2.73;;
58992;SDS011;44782;0.000;0.000;2023-02-01T10:46:32;3.30;;;2.30;;
58992;SDS011;44782;0.000;0.000;2023-02-01T10:48:49;4.93;;;2.80;;
58992;SDS011;44782;0.000;0.000;2023-02-01T10:51:12;3.93;;;2.30;;
58992;SDS011;44782;0.000;0.000;2023-02-01T10:56:07;4.20;;;2.43;;
58992;SDS011;44782;0.000;0.000;2023-02-01T10:58:28;4.13;;;2.57;;
58992;SDS011;44782;0.000;0.000;2023-02-01T11:03:33;3.57;;;2.40;;
58992;SDS011;44782;0.000;0.000;2023-02-01T11:05:49;4.27;;;2.53;;
58992;SDS011;44782;0.000;0.000;2023-02-01T11:08:05;4.27;;;2.50;;
58992;SDS011;44782;0.000;0.000;2023-02-01T11:10:35;3.07;;;2.10;;
58992;SDS011;44782;0.000;0.000;2023-02-01T11:12:53;4.37;;;2.50;;
58992;SDS011;44782;0.000;0.000;2023-02-01T11:15:19;3.10;;;2.40;;
58992;SDS011;44782;0.000;0.000;2023-02-01T11:17:39;3.60;;;2.23;;
58992;SDS011;44782;0.000;0.000;2023-02-01T11:19:59;3.37;;;2.20;;
58992;SDS011;44782;0.000;0.000;2023-02-01T11:22:16;3.43;;;2.23;;
58992;SDS011;44782;0.000;0.000;2023-02-01T11:24:33;3.73;;;2.30;;
58992;SDS011;44782;0.000;0.000;2023-02-01T11:26:56;4.47;;;2.33;;
58992;SDS011;44782;0.000;0.000;2023-02-01T11:29:14;3.23;;;2.40;;
58992;SDS011;44782;0.000;0.000;2023-02-01T11:31:35;4.03;;;2.30;;
58992;SDS011;44782;0.000;0.000;2023-02-01T11:34:05;4.50;;;2.23;;
58992;SDS011;44782;0.000;0.000;2023-02-01T11:36:23;3.13;;;2.30;;
58992;SDS011;44782;0.000;0.000;2023-02-01T11:39:07;4.67;;;2.37;;
58992;SDS011;44782;0.000;0.000;2023-02-01T11:44:21;4.37;;;2.30;;
58992;SDS011;44782;0.000;0.000;2023-02-01T11:46:41;4.20;;;2.57;;
58992;SDS011;44782;0.000;0.000;2023-02-01T11:48:57;3.60;;;2.03;;
58992;SDS011;44782;0.000;0.000;2023-02-01T11:54:08;3.57;;;2.10;;
58992;SDS011;44782;0.000;0.000;2023-02-01T11:56:32;4.23;;;2.30;;
58992;SDS011;44782;0.000;0.000;2023-02-01T11:59:16;4.07;;;2.27;;
58992;SDS011;44782;0.000;0.000;2023-02-01T12:07:19;3.87;;;2.37;;
58992;SDS011;44782;0.000;0.000;2023-02-01T12:25:21;4.77;;;2.40;;
58992;SDS011;44782;0.000;0.000;2023-02-01T12:30:49;4.67;;;2.37;;
58992;SDS011;44782;0.000;0.000;2023-02-01T12:45:54;5.70;;;2.60;;
58992;SDS011;44782;0.000;0.000;2023-02-01T12:48:28;3.67;;;2.20;;
58992;SDS011;44782;0.000;0.000;2023-02-01T12:50:51;3.97;;;2.60;;
58992;SDS011;44782;0.000;0.000;2023-02-01T12:53:15;3.83;;;2.17;;
58992;SDS011;44782;0.000;0.000;2023-02-01T12:55:41;4.70;;;2.57;;
58992;SDS011;44782;0.000;0.000;2023-02-01T13:02:55;4.13;;;2.40;;
58992;SDS011;44782;0.000;0.000;2023-02-01T13:05:28;4.97;;;2.30;;
58992;SDS011;44782;0.000;0.000;2023-02-01T13:08:00;4.63;;;2.50;;
58992;SDS011;44782;0.000;0.000;2023-02-01T13:15:13;4.03;;;2.40;;
58992;SDS011;44782;0.000;0.000;2023-02-01T13:17:35;3.73;;;2.53;;
58992;SDS011;44782;0.000;0.000;2023-02-01T13:23:04;3.00;;;2.17;;
58992;SDS011;44782;0.000;0.000;2023-02-01T13:27:48;5.10;;;2.57;;
58992;SDS011;44782;0.000;0.000;2023-02-01T13:30:12;3.63;;;2.13;;
58992;SDS011;44782;0.000;0.000;2023-02-01T13:33:06;4.33;;;2.40;;
58992;SDS011;44782;0.000;0.000;2023-02-01T13:36:03;3.50;;;2.53;;
58992;SDS011;44782;0.000;0.000;2023-02-01T13:43:44;3.77;;;2.13;;
58992;SDS011;44782;0.000;0.000;2023-02-01T13:46:05;4.77;;;2.70;;
58992;SDS011;44782;0.000;0.000;2023-02-01T13:48:36;4.17;;;2.20;;
58992;SDS011;44782;0.000;0.000;2023-02-01T13:50:58;3.13;;;2.10;;
58992;SDS011;44782;0.000;0.000;2023-02-01T13:53:16;3.90;;;2.47;;
58992;SDS011;44782;0.000;0.000;2023-02-01T13:55:36;4.23;;;2.00;;
58992;SDS011;44782;0.000;0.000;2023-02-01T13:58:30;3.57;;;2.40;;
58992;SDS011;44782;0.000;0.000;2023-02-01T14:00:50;5.30;;;2.70;;
58992;SDS011;44782;0.000;0.000;2023-02-01T14:03:09;4.27;;;2.40;;
58992;SDS011;44782;0.000;0.000;2023-02-01T14:08:02;4.23;;;2.33;;
58992;SDS011;44782;0.000;0.000;2023-02-01T14:13:12;5.53;;;2.23;;
58992;SDS011;44782;0.000;0.000;2023-02-01T14:15:28;3.50;;;2.20;;
58992;SDS011;44782;0.000;0.000;2023-02-01T14:17:44;5.63;;;2.07;;
58992;SDS011;44782;0.000;0.000;2023-02-01T14:23:00;3.63;;;2.10;;
58992;SDS011;44782;0.000;0.000;2023-02-01T14:25:18;4.50;;;2.10;;
58992;SDS011;44782;0.000;0.000;2023-02-01T14:27:35;3.90;;;2.27;;
58992;SDS011;44782;0.000;0.000;2023-02-01T14:29:51;3.17;;;2.20;;
58992;SDS011;44782;0.000;0.000;2023-02-01T14:32:18;4.10;;;2.30;;
58992;SDS011;44782;0.000;0.000;2023-02-01T14:34:55;5.13;;;2.20;;
58992;SDS011;44782;0.000;0.000;2023-02-01T14:39:34;4.60;;;2.30;;
58992;SDS011;44782;0.000;0.000;2023-02-01T14:42:04;4.47;;;2.20;;
58992;SDS011;44782;0.000;0.000;2023-02-01T14:44:31;2.80;;;2.10;;
58992;SDS011;44782;0.000;0.000;2023-02-01T14:49:21;3.27;;;1.90;;
58992;SDS011;44782;0.000;0.000;2023-02-01T14:51:38;3.73;;;2.20;;
58992;SDS011;44782;0.000;0.000;2023-02-01T14:53:54;3.17;;;2.07;;
58992;SDS011;44782;0.000;0.000;2023-02-01T14:56:14;4.43;;;2.20;;
58992;SDS011;44782;0.000;0.000;2023-02-01T14:58:42;3.83;;;1.97;;
58992;SDS011;44782;0.000;0.000;2023-02-01T15:06:16;2.67;;;1.90;;
58992;SDS011;44782;0.000;0.000;2023-02-01T15:08:39;3.53;;;2.20;;
58992;SDS011;44782;0.000;0.000;2023-02-01T15:10:56;3.20;;;2.00;;
58992;SDS011;44782;0.000;0.000;2023-02-01T15:13:26;2.70;;;1.77;;
58992;SDS011;44782;0.000;0.000;2023-02-01T15:15:43;2.17;;;1.80;;
58992;SDS011;44782;0.000;0.000;2023-02-01T15:17:58;4.00;;;2.10;;
58992;SDS011;44782;0.000;0.000;2023-02-01T15:20:16;3.13;;;2.10;;
58992;SDS011;44782;0.000;0.000;2023-02-01T15:22:36;2.83;;;1.77;;
58992;SDS011;44782;0.000;0.000;2023-02-01T15:24:52;2.40;;;1.70;;
58992;SDS011;44782;0.000;0.000;2023-02-01T15:27:11;2.90;;;2.13;;
58992;SDS011;44782;0.000;0.000;2023-02-01T15:29:27;3.87;;;2.20;;
58992;SDS011;44782;0.000;0.000;2023-02-01T15:31:50;3.03;;;1.97;;
58992;SDS011;44782;0.000;0.000;2023-02-01T15:34:07;3.00;;;2.00;;
58992;SDS011;44782;0.000;0.000;2023-02-01T15:36:23;3.33;;;2.07;;
58992;SDS011;44782;0.000;0.000;2023-02-01T15:38:42;4.70;;;2.27;;
58992;SDS011;44782;0.000;0.000;2023-02-01T15:43:17;3.33;;;1.83;;
58992;SDS011;44782;0.000;0.000;2023-02-01T15:45:32;3.07;;;1.93;;
58992;SDS011;44782;0.000;0.000;2023-02-01T15:47:48;3.77;;;2.10;;
58992;SDS011;44782;0.000;0.000;2023-02-01T15:50:11;2.97;;;1.93;;
58992;SDS011;44782;0.000;0.000;2023-02-01T15:54:53;3.00;;;2.10;;
58992;SDS011;44782;0.000;0.000;2023-02-01T15:57:11;3.57;;;2.10;;
58992;SDS011;44782;0.000;0.000;2023-02-01T15:59:47;3.50;;;2.20;;
58992;SDS011;44782;0.000;0.000;2023-02-01T16:02:22;4.20;;;1.90;;
58992;SDS011;44782;0.000;0.000;2023-02-01T16:04:47;3.10;;;2.00;;
58992;SDS011;44782;0.000;0.000;2023-02-01T16:07:06;3.17;;;1.87;;
58992;SDS011;44782;0.000;0.000;2023-02-01T16:09:50;3.20;;;1.97;;
58992;SDS011;44782;0.000;0.000;2023-02-01T16:14:46;5.37;;;2.30;;
58992;SDS011;44782;0.000;0.000;2023-02-01T16:17:01;3.23;;;2.10;;
58992;SDS011;44782;0.000;0.000;2023-02-01T16:19:17;3.53;;;2.07;;
58992;SDS011;44782;0.000;0.000;2023-02-01T16:21:33;3.60;;;2.07;;
58992;SDS011;44782;0.000;0.000;2023-02-01T16:23:52;4.17;;;2.10;;
58992;SDS011;44782;0.000;0.000;2023-02-01T16:26:08;3.20;;;2.20;;
58992;SDS011;44782;0.000;0.000;2023-02-01T16:28:25;2.83;;;1.90;;
58992;SDS011;44782;0.000;0.000;2023-02-01T16:30:41;2.40;;;1.77;;
58992;SDS011;44782;0.000;0.000;2023-02-01T16:32:57;3.03;;;1.80;;
58992;SDS011;44782;0.000;0.000;2023-02-01T16:35:30;3.43;;;1.87;;
58992;SDS011;44782;0.000;0.000;2023-02-01T16:37:50;3.73;;;2.00;;
58992;SDS011;44782;0.000;0.000;2023-02-01T16:40:08;3.40;;;2.00;;
58992;SDS011;44782;0.000;0.000;2023-02-01T16:42:29;2.60;;;1.67;;
58992;SDS011;44782;0.000;0.000;2023-02-01T16:44:45;2.90;;;2.10;;
58992;SDS011;44782;0.000;0.000;2023-02-01T16:47:01;4.07;;;2.10;;
58992;SDS011;44782;0.000;0.000;2023-02-01T16:49:20;3.83;;;2.00;;
58992;SDS011;44782;0.000;0.000;2023-02-01T16:51:39;2.73;;;1.80;;
58992;SDS011;44782;0.000;0.000;2023-02-01T16:53:55;3.30;;;1.90;;